createdAt,value
2023-04-26T10:46:35.284Z,10.20
2023-04-26T10:49:20.040Z,12.30
2023-04-26T10:52:11.856Z,10.90
2023-04-26T10:54:50.627Z,10.80
2023-04-26T10:57:18.709Z,10.40
2023-04-26T11:00:21.243Z,10.20
2023-04-26T11:02:59.770Z,10.10
2023-04-26T11:05:36.560Z,9.90
2023-04-26T11:08:37.249Z,10.00
2023-04-26T11:11:13.829Z,9.90
2023-04-26T11:13:43.100Z,11.50
2023-04-26T11:16:15.239Z,12.10
2023-04-26T11:18:45.021Z,13.10
2023-04-26T11:21:18.138Z,12.30
2023-04-26T11:23:56.046Z,12.20
2023-04-26T11:26:31.941Z,13.10
2023-04-26T11:28:59.076Z,14.00
2023-04-26T11:31:26.223Z,14.00
2023-04-26T11:33:53.811Z,14.80
2023-04-26T11:36:23.928Z,15.20
2023-04-26T11:38:51.860Z,14.00
2023-04-26T11:41:19.146Z,12.90
2023-04-26T11:43:46.376Z,12.10
2023-04-26T11:46:13.706Z,11.80
2023-04-26T11:48:41.741Z,11.30
2023-04-26T11:51:10.616Z,11.80
2023-04-26T11:53:42.184Z,11.70
2023-04-26T11:56:20.413Z,11.90
2023-04-26T11:58:54.430Z,15.10
2023-04-26T12:01:26.560Z,18.60
2023-04-26T12:03:56.186Z,18.30
2023-04-26T12:06:43.073Z,15.40
2023-04-26T12:09:11.612Z,14.10
2023-04-26T12:11:39.949Z,12.80
2023-04-26T12:14:10.227Z,14.40
2023-04-26T12:16:38.077Z,16.60
2023-04-26T12:19:11.623Z,18.70
2023-04-26T12:21:43.604Z,16.50
2023-04-26T12:24:34.666Z,17.20
2023-04-26T12:27:04.513Z,16.70
2023-04-26T12:29:32.407Z,16.50
2023-04-26T12:32:00.839Z,17.00
2023-04-26T12:34:28.546Z,15.00
2023-04-26T12:36:55.933Z,13.90
2023-04-26T12:39:23.395Z,13.40
2023-04-26T12:41:50.506Z,14.20
2023-04-26T12:44:19.623Z,15.00
2023-04-26T12:46:48.693Z,17.20
2023-04-26T12:49:16.003Z,15.10
2023-04-26T12:51:43.306Z,15.30
2023-04-26T12:54:10.556Z,14.40
2023-04-26T12:56:43.861Z,17.30
2023-04-26T12:59:11.479Z,16.60
2023-04-26T13:01:38.772Z,15.80
2023-04-26T13:04:06.608Z,16.80
2023-04-26T13:06:36.041Z,19.20
2023-04-26T13:09:03.547Z,21.80
2023-04-26T13:11:31.095Z,18.60
2023-04-26T13:13:58.503Z,20.80
2023-04-26T13:16:26.383Z,16.10
2023-04-26T13:18:54.660Z,15.90
2023-04-26T13:21:21.850Z,20.40
2023-04-26T13:23:48.973Z,18.80
2023-04-26T13:26:18.304Z,16.70
2023-04-26T13:28:45.674Z,18.90
2023-04-26T13:31:13.010Z,20.70
2023-04-26T13:33:40.219Z,17.30
2023-04-26T13:36:07.669Z,15.30
2023-04-26T13:38:35.085Z,13.80
2023-04-26T13:41:03.195Z,14.00
2023-04-26T13:43:30.588Z,16.20
2023-04-26T13:45:57.828Z,16.50
2023-04-26T13:48:25.084Z,21.00
2023-04-26T13:50:52.426Z,21.40
2023-04-26T13:53:20.109Z,20.30
2023-04-26T13:55:48.134Z,20.00
2023-04-26T13:58:15.591Z,16.20
2023-04-26T14:00:43.099Z,18.50
2023-04-26T14:03:10.755Z,19.70
2023-04-26T14:05:38.133Z,17.40
2023-04-26T14:08:06.288Z,18.20
2023-04-26T14:10:33.702Z,21.60
2023-04-26T14:13:00.888Z,19.20
2023-04-26T14:15:29.176Z,20.20
2023-04-26T14:17:56.468Z,17.90
2023-04-26T14:20:23.663Z,19.10
2023-04-26T14:22:50.936Z,17.60
2023-04-26T14:25:18.184Z,15.10
2023-04-26T14:27:45.324Z,14.20
2023-04-26T14:30:12.928Z,14.00
2023-04-26T14:32:40.204Z,13.10
2023-04-26T14:35:08.110Z,13.10
2023-04-26T14:37:35.285Z,13.30
2023-04-26T14:40:03.039Z,13.60
2023-04-26T14:42:30.484Z,16.10
2023-04-26T14:45:00.911Z,18.40
2023-04-26T14:47:29.598Z,18.00
2023-04-26T14:49:57.982Z,16.80
2023-04-26T14:52:28.391Z,14.50
2023-04-26T14:54:55.634Z,13.60
2023-04-26T14:57:23.482Z,13.00
2023-04-26T14:59:51.259Z,13.60
2023-04-26T15:02:18.477Z,15.40
2023-04-26T15:04:46.022Z,13.70
2023-04-26T15:07:28.338Z,15.40
2023-04-26T15:09:58.654Z,13.70
2023-04-26T15:12:26.111Z,15.20
2023-04-26T15:14:53.395Z,20.40
2023-04-26T15:17:20.734Z,18.30
2023-04-26T15:19:48.652Z,16.00
2023-04-26T15:22:16.281Z,19.80
2023-04-26T15:24:43.723Z,20.50
2023-04-26T15:27:11.238Z,18.80
2023-04-26T15:29:38.452Z,15.50
2023-04-26T15:32:05.973Z,14.00
2023-04-26T15:34:40.952Z,14.10
2023-04-26T15:37:08.167Z,13.30
2023-04-26T15:39:35.602Z,13.20
2023-04-26T15:42:04.762Z,13.20
2023-04-26T15:44:32.705Z,12.90
2023-04-26T15:47:01.912Z,12.40
2023-04-26T15:49:29.706Z,12.50
2023-04-26T15:51:57.171Z,12.60
2023-04-26T15:54:24.442Z,12.50
2023-04-26T15:56:52.043Z,12.60
2023-04-26T15:59:20.596Z,12.50
2023-04-26T16:01:48.001Z,12.70
2023-04-26T16:04:15.375Z,12.60
2023-04-26T16:06:42.793Z,12.50
2023-04-26T16:09:24.683Z,12.60
2023-04-26T16:11:52.868Z,12.80
2023-04-26T16:14:20.096Z,12.80
2023-04-26T16:17:12.067Z,12.60
2023-04-26T16:19:39.280Z,12.70
2023-04-26T16:22:06.832Z,12.40
2023-04-26T16:24:34.087Z,12.30
2023-04-26T16:27:02.127Z,12.00
2023-04-26T16:29:29.437Z,11.80
2023-04-26T16:31:57.038Z,11.60
2023-04-26T16:34:24.629Z,11.70
2023-04-26T16:36:51.939Z,11.70
2023-04-26T16:39:19.902Z,11.60
2023-04-26T16:42:09.033Z,11.50
2023-04-26T16:44:36.308Z,11.60
2023-04-26T16:47:04.257Z,11.50
2023-04-26T16:49:31.465Z,11.60
2023-04-26T16:52:02.090Z,11.50
2023-04-26T16:54:29.373Z,11.40
2023-04-26T16:56:57.003Z,11.40
2023-04-26T16:59:24.534Z,11.40
2023-04-26T17:01:52.564Z,11.40
2023-04-26T17:04:20.524Z,11.20
2023-04-26T17:06:47.894Z,11.30
2023-04-26T17:09:15.132Z,11.20
2023-04-26T17:11:43.692Z,11.10
2023-04-26T17:14:11.603Z,11.00
2023-04-26T17:16:38.866Z,10.90
2023-04-26T17:19:07.255Z,10.80
2023-04-26T17:21:34.506Z,10.80
2023-04-26T17:24:01.865Z,10.90
2023-04-26T17:26:29.848Z,10.80
2023-04-26T17:28:57.216Z,10.70
2023-04-26T17:31:24.660Z,10.50
2023-04-26T17:33:52.545Z,10.40
2023-04-26T17:36:19.999Z,10.20
2023-04-26T17:38:48.543Z,10.10
2023-04-26T17:41:19.600Z,10.00
2023-04-26T17:43:47.452Z,9.80
2023-04-26T17:46:14.798Z,9.80
2023-04-26T17:48:42.130Z,9.80
2023-04-26T17:51:09.665Z,9.70
2023-04-26T17:53:37.016Z,9.70
2023-04-26T17:56:07.637Z,9.60
2023-04-26T17:58:35.064Z,9.40
2023-04-26T18:01:02.646Z,9.40
2023-04-26T18:03:30.309Z,9.20
2023-04-26T18:05:58.245Z,9.10
2023-04-26T18:08:25.511Z,9.20
2023-04-26T18:10:54.365Z,9.10
2023-04-26T18:13:21.960Z,9.00
2023-04-26T18:15:51.390Z,9.00
2023-04-26T18:18:18.674Z,8.90
2023-04-26T18:20:46.021Z,8.90
2023-04-26T18:23:13.380Z,8.80
2023-04-26T18:25:40.756Z,8.80
2023-04-26T18:28:08.901Z,8.70
2023-04-26T18:30:36.236Z,8.50
2023-04-26T18:33:03.940Z,8.50
2023-04-26T18:35:31.243Z,8.50
2023-04-26T18:37:58.737Z,8.50
2023-04-26T18:40:26.025Z,8.40
2023-04-26T18:42:53.276Z,8.30
2023-04-26T18:45:20.486Z,8.20
2023-04-26T18:47:47.838Z,8.10
2023-04-26T18:50:15.129Z,8.00
2023-04-26T18:52:42.418Z,8.00
2023-04-26T18:55:10.986Z,7.90
2023-04-26T18:57:38.284Z,7.90
2023-04-26T19:00:08.115Z,7.90
2023-04-26T19:02:40.069Z,7.90
2023-04-26T19:05:13.313Z,7.70
2023-04-26T19:07:42.047Z,7.80
2023-04-26T19:10:09.704Z,7.70
2023-04-26T19:12:37.057Z,7.70
2023-04-26T19:15:04.628Z,7.60
2023-04-26T19:17:33.498Z,7.50
2023-04-26T19:20:00.828Z,7.50
2023-04-26T19:22:28.048Z,7.40
2023-04-26T19:24:55.180Z,7.40
2023-04-26T19:27:22.490Z,7.40
2023-04-26T19:29:49.858Z,7.40
2023-04-26T19:32:19.126Z,7.30
2023-04-26T19:34:46.426Z,7.20
2023-04-26T19:37:13.612Z,7.20
2023-04-26T19:39:41.084Z,7.20
2023-04-26T19:42:08.250Z,7.20
2023-04-26T19:44:36.057Z,7.10
2023-04-26T19:47:04.558Z,7.10
2023-04-26T19:49:31.805Z,7.00
2023-04-26T19:51:58.995Z,7.00
2023-04-26T19:54:26.454Z,7.00
2023-04-26T19:56:53.727Z,6.90
2023-04-26T19:59:21.154Z,6.90
2023-04-26T20:01:48.292Z,6.80
2023-04-26T20:04:15.721Z,6.70
2023-04-26T20:06:43.098Z,6.40
2023-04-26T20:09:11.084Z,6.20
2023-04-26T20:11:38.391Z,6.00
2023-04-26T20:14:05.625Z,6.00
2023-04-26T20:16:33.258Z,6.00
2023-04-26T20:19:00.585Z,6.00
2023-04-26T20:21:29.078Z,6.10
2023-04-26T20:23:56.716Z,6.30
2023-04-26T20:26:24.198Z,6.40
2023-04-26T20:28:51.553Z,6.50
2023-04-26T20:31:18.946Z,6.60
2023-04-26T20:33:46.363Z,6.60
2023-04-26T20:36:14.307Z,6.60
2023-04-26T20:38:41.508Z,6.60
2023-04-26T20:41:08.800Z,6.10
2023-04-26T20:43:35.853Z,6.10
2023-04-26T20:46:03.824Z,6.00
2023-04-26T20:48:31.275Z,6.00
2023-04-26T20:51:01.512Z,5.90
2023-04-26T20:53:28.872Z,6.00
2023-04-26T20:55:56.179Z,6.00
2023-04-26T20:58:24.240Z,6.00
2023-04-26T21:00:52.701Z,6.10
2023-04-26T21:03:20.693Z,6.20
2023-04-26T21:05:48.394Z,6.40
2023-04-26T21:08:15.640Z,6.20
2023-04-26T21:10:42.830Z,6.20
2023-04-26T21:13:10.204Z,6.10
2023-04-26T21:15:37.529Z,6.10
2023-04-26T21:18:05.267Z,6.20
2023-04-26T21:20:32.593Z,6.10
2023-04-26T21:22:59.831Z,6.20
2023-04-26T21:25:28.295Z,6.20
2023-04-26T21:27:55.539Z,6.30
2023-04-26T21:30:22.905Z,6.30
2023-04-26T21:32:50.164Z,6.20
2023-04-26T21:35:17.847Z,6.20
2023-04-26T21:37:45.006Z,6.20
2023-04-26T21:40:12.612Z,6.10
2023-04-26T21:42:39.746Z,6.20
2023-04-26T21:45:07.879Z,6.10
2023-04-26T21:47:35.189Z,6.10
2023-04-26T21:50:02.478Z,6.10
2023-04-26T21:52:29.753Z,6.00
2023-04-26T21:54:57.056Z,6.10
2023-04-26T21:57:24.352Z,6.20
2023-04-26T21:59:51.524Z,6.10
2023-04-26T22:02:19.259Z,6.00
2023-04-26T22:04:46.829Z,6.00
